YXX weather

Abbotsford Airport
Abbotsford, British Columbia, Canada

Public forecast

Using degrees Celsius for public forecast. Weather courtesy of forecast.io.

Current aviation weather report (METAR) for Abbotsford Airport

Retrieved 2019/10/22 12:00 UTC (29 minutes ago):

CYXX 221200Z 22006KT 10SM FEW005 SCT050 BKN180 10/09 A3015 RMK SF1SC3AC2 SLP213

Aviation forecast (TAF) for Abbotsford Airport

Retrieved 2019/10/22 12:42 UTC (0 seconds ago):

TAF CYXX 221139Z 2212/2312 VRB03KT P6SM FEW004 BKN040 PROB40 2212/2216 1SM BR BKN004 BECMG 2212/2214 20012G22KT FM221600 20012G22KT P6SM SCT020 TEMPO 2216/2220 BKN020 FM230400 VRB03KT P6SM FEW006 PROB40 2308/2312 2SM BR BKN006 RMK NXT FCST BY 221800Z